createdAt,value
2019-05-11T00:01:42.276Z,16.97
2019-05-11T00:04:09.224Z,15.17
2019-05-11T00:06:36.141Z,16.17
2019-05-11T00:09:05.341Z,14.93
2019-05-11T00:11:32.336Z,14.50
2019-05-11T00:13:59.281Z,16.13
2019-05-11T00:16:26.190Z,16.00
2019-05-11T00:18:53.138Z,17.97
2019-05-11T00:21:20.095Z,15.63
2019-05-11T00:23:47.045Z,15.93
2019-05-11T00:26:13.949Z,17.47
2019-05-11T00:28:40.890Z,18.00
2019-05-11T00:31:07.805Z,17.97
2019-05-11T00:33:34.774Z,18.47
2019-05-11T00:36:01.686Z,21.87
2019-05-11T00:38:28.774Z,18.93
2019-05-11T00:40:55.709Z,19.37
2019-05-11T00:43:22.660Z,19.30
2019-05-11T00:45:49.570Z,20.87
2019-05-11T00:48:16.524Z,19.70
2019-05-11T00:50:43.451Z,21.13
2019-05-11T00:53:10.406Z,21.10
2019-05-11T00:55:37.326Z,21.10
2019-05-11T00:58:04.262Z,22.60
2019-05-11T01:00:31.240Z,21.77
2019-05-11T01:02:58.161Z,23.83
2019-05-11T01:05:25.076Z,24.97
2019-05-11T01:07:52.122Z,24.00
2019-05-11T01:10:25.480Z,22.77
2019-05-11T01:12:47.999Z,23.97
2019-05-11T01:15:15.123Z,25.37
2019-05-11T01:17:42.040Z,25.43
2019-05-11T01:20:09.013Z,25.80
2019-05-11T01:22:36.183Z,25.93
2019-05-11T01:25:03.569Z,25.40
2019-05-11T01:27:30.479Z,26.80
2019-05-11T01:29:57.453Z,25.33
2019-05-11T01:32:24.406Z,28.03
2019-05-11T01:34:51.347Z,27.07
2019-05-11T01:37:18.282Z,25.50
2019-05-11T01:39:45.242Z,27.07
2019-05-11T01:42:12.217Z,29.53
2019-05-11T01:44:39.163Z,26.63
2019-05-11T01:47:06.092Z,28.77
2019-05-11T01:49:33.059Z,29.47
2019-05-11T01:51:59.977Z,30.33
2019-05-11T01:54:27.001Z,31.27
2019-05-11T01:56:53.963Z,29.53
2019-05-11T01:59:20.901Z,30.00
2019-05-11T02:01:47.874Z,32.77
2019-05-11T02:04:14.831Z,32.33
2019-05-11T02:06:41.748Z,31.13
2019-05-11T02:09:08.696Z,33.97
2019-05-11T02:11:35.610Z,33.60
2019-05-11T02:14:02.602Z,34.70
2019-05-11T02:16:29.518Z,35.53
2019-05-11T02:18:56.470Z,37.00
2019-05-11T02:21:23.386Z,33.67
2019-05-11T02:23:50.446Z,35.37
2019-05-11T02:26:17.370Z,33.73
2019-05-11T02:28:44.640Z,34.23
2019-05-11T02:31:11.573Z,35.87
2019-05-11T02:33:38.536Z,34.87
2019-05-11T02:36:05.514Z,35.67
2019-05-11T02:38:32.430Z,35.37
2019-05-11T02:40:59.391Z,35.63
2019-05-11T02:43:26.335Z,34.50
2019-05-11T02:45:53.289Z,36.50
2019-05-11T02:48:20.215Z,34.30
2019-05-11T02:50:47.580Z,34.00
2019-05-11T02:53:15.108Z,34.23
2019-05-11T02:55:43.887Z,35.70
2019-05-11T02:58:10.844Z,35.20
2019-05-11T03:00:39.977Z,34.87
2019-05-11T03:03:06.909Z,35.03
2019-05-11T03:05:33.867Z,33.57
2019-05-11T03:08:00.800Z,31.63
2019-05-11T03:10:27.784Z,32.50
2019-05-11T03:12:54.670Z,32.30
2019-05-11T03:15:21.633Z,34.50
2019-05-11T03:17:48.739Z,32.33
2019-05-11T03:20:15.684Z,32.70
2019-05-11T03:22:42.598Z,32.80
2019-05-11T03:25:09.588Z,31.40
2019-05-11T03:27:36.461Z,29.47
2019-05-11T03:30:03.919Z,30.70
2019-05-11T03:32:30.847Z,27.00
2019-05-11T03:34:57.815Z,29.00
2019-05-11T03:37:24.736Z,27.80
2019-05-11T03:39:51.698Z,29.40
2019-05-11T03:42:18.611Z,25.70
2019-05-11T03:44:45.564Z,27.00
2019-05-11T03:47:12.472Z,25.93
2019-05-11T03:49:39.425Z,24.17
2019-05-11T03:52:06.335Z,22.57
2019-05-11T03:54:33.283Z,21.80
2019-05-11T03:57:00.202Z,21.53
2019-05-11T03:59:27.134Z,22.73
2019-05-11T04:01:54.078Z,21.27
2019-05-11T04:04:21.021Z,20.87
2019-05-11T04:06:47.966Z,19.33
2019-05-11T04:09:14.885Z,19.00
2019-05-11T04:11:41.836Z,18.20
2019-05-11T04:14:08.805Z,19.30
2019-05-11T04:16:35.711Z,20.30
2019-05-11T04:19:02.645Z,17.80
2019-05-11T04:21:29.603Z,19.40
2019-05-11T04:23:56.531Z,19.70
2019-05-11T04:26:23.490Z,18.90
2019-05-11T04:28:50.448Z,18.63
2019-05-11T04:31:17.421Z,16.50
2019-05-11T04:33:44.322Z,16.97
2019-05-11T04:36:11.286Z,17.53
2019-05-11T04:38:38.211Z,18.67
2019-05-11T04:41:05.191Z,19.00
2019-05-11T04:43:32.122Z,17.17
2019-05-11T04:45:59.084Z,20.13
2019-05-11T04:48:26.008Z,17.93
2019-05-11T04:50:52.970Z,18.37
2019-05-11T04:53:19.964Z,16.70
2019-05-11T04:55:46.916Z,17.33
2019-05-11T04:58:13.852Z,18.40
2019-05-11T05:00:40.824Z,16.80
2019-05-11T05:03:07.743Z,17.27
2019-05-11T05:05:34.689Z,17.80
2019-05-11T05:08:09.481Z,17.17
2019-05-11T05:10:30.720Z,19.07
2019-05-11T05:13:09.691Z,17.20
2019-05-11T05:15:26.554Z,17.57
2019-05-11T05:17:53.525Z,18.90
2019-05-11T05:20:20.514Z,18.33
2019-05-11T05:22:47.503Z,16.97
2019-05-11T05:25:14.487Z,17.83
2019-05-11T05:27:41.433Z,17.93
2019-05-11T05:30:08.871Z,17.57
2019-05-11T05:32:35.978Z,17.00
2019-05-11T05:35:03.117Z,16.67
2019-05-11T05:37:30.065Z,16.33
2019-05-11T05:39:56.985Z,16.73
2019-05-11T05:42:23.952Z,15.90
2019-05-11T05:44:50.898Z,15.90
2019-05-11T05:47:17.860Z,15.70
2019-05-11T05:49:44.798Z,16.93
2019-05-11T05:52:12.397Z,16.50
2019-05-11T05:54:39.329Z,14.83
2019-05-11T05:57:06.274Z,14.97
2019-05-11T05:59:33.292Z,15.57
2019-05-11T06:02:00.268Z,14.97
2019-05-11T06:04:27.199Z,15.93
2019-05-11T06:06:54.157Z,16.00
2019-05-11T06:09:21.086Z,14.93
2019-05-11T06:11:48.053Z,15.30
2019-05-11T06:14:14.995Z,14.73
2019-05-11T06:16:42.008Z,14.80
2019-05-11T06:19:08.923Z,14.90
2019-05-11T06:21:35.873Z,15.40
2019-05-11T06:24:06.507Z,15.80
2019-05-11T06:26:31.859Z,14.37
2019-05-11T06:28:58.784Z,15.53
2019-05-11T06:31:25.752Z,15.90
2019-05-11T06:33:52.709Z,16.10
2019-05-11T06:36:19.655Z,15.00
2019-05-11T06:38:46.595Z,15.60
2019-05-11T06:41:13.596Z,17.00
2019-05-11T06:43:40.542Z,15.37
2019-05-11T06:46:07.478Z,15.10
2019-05-11T06:48:34.442Z,16.57
2019-05-11T06:51:01.398Z,15.20
2019-05-11T06:53:28.387Z,16.30
2019-05-11T06:55:55.306Z,16.10
2019-05-11T06:58:22.252Z,15.77
2019-05-11T07:00:49.187Z,16.10
2019-05-11T07:03:16.188Z,16.80
2019-05-11T07:05:43.398Z,16.90
2019-05-11T07:08:10.355Z,16.43
2019-05-11T07:10:37.293Z,17.47
2019-05-11T07:13:04.266Z,17.10
2019-05-11T07:15:31.194Z,16.27
2019-05-11T07:17:58.155Z,16.30
2019-05-11T07:20:25.147Z,16.47
2019-05-11T07:22:52.556Z,16.83
2019-05-11T07:25:19.482Z,17.03
2019-05-11T07:27:46.472Z,16.70
2019-05-11T07:30:13.519Z,17.33
2019-05-11T07:32:40.542Z,17.43
2019-05-11T07:35:08.395Z,17.20
2019-05-11T07:37:38.266Z,16.50
2019-05-11T07:40:04.989Z,18.30
2019-05-11T07:42:32.044Z,18.53
2019-05-11T07:44:58.920Z,17.80
2019-05-11T07:47:27.806Z,18.33
2019-05-11T07:49:54.734Z,18.93
2019-05-11T07:52:21.696Z,19.00
2019-05-11T07:54:52.596Z,19.63
2019-05-11T07:57:18.612Z,17.57
2019-05-11T07:59:45.824Z,18.80
2019-05-11T08:02:12.767Z,20.63
2019-05-11T08:04:39.715Z,19.10
2019-05-11T08:07:07.677Z,20.67
2019-05-11T08:09:34.810Z,18.13
2019-05-11T08:12:01.790Z,19.20
2019-05-11T08:14:28.964Z,20.47
2019-05-11T08:16:56.061Z,20.80
2019-05-11T08:19:23.033Z,19.50
2019-05-11T08:21:49.976Z,18.50
2019-05-11T08:24:18.039Z,17.67
2019-05-11T08:26:45.091Z,17.90
2019-05-11T08:29:12.043Z,19.20
2019-05-11T08:31:38.972Z,18.83
2019-05-11T08:34:05.933Z,16.60
2019-05-11T08:36:32.900Z,16.57
2019-05-11T08:38:59.863Z,15.90
2019-05-11T08:41:27.969Z,16.90
2019-05-11T08:43:55.200Z,17.27
2019-05-11T08:46:22.115Z,15.20
2019-05-11T08:48:49.072Z,15.27
2019-05-11T08:51:18.378Z,15.17
2019-05-11T08:53:44.908Z,14.80
2019-05-11T08:56:13.310Z,16.90
2019-05-11T08:58:40.402Z,14.77
2019-05-11T09:01:08.811Z,14.93
2019-05-11T09:03:35.999Z,16.50
2019-05-11T09:06:02.981Z,13.03
2019-05-11T09:08:29.952Z,14.70
2019-05-11T09:10:58.206Z,13.10
2019-05-11T09:13:27.703Z,12.37
2019-05-11T09:15:54.232Z,12.07
2019-05-11T09:18:21.184Z,12.17
2019-05-11T09:20:48.767Z,13.50
2019-05-11T09:23:32.952Z,13.00
2019-05-11T09:25:44.626Z,13.83
2019-05-11T09:28:11.564Z,14.37
2019-05-11T09:30:38.497Z,15.83
2019-05-11T09:33:05.457Z,16.03
2019-05-11T09:35:46.433Z,19.50
2019-05-11T09:38:01.258Z,15.87
2019-05-11T09:40:28.486Z,14.90
2019-05-11T09:42:58.333Z,15.87
2019-05-11T09:45:24.850Z,16.40
2019-05-11T09:47:51.857Z,15.27
2019-05-11T09:50:18.815Z,14.50
2019-05-11T09:52:45.762Z,15.30
2019-05-11T09:55:12.723Z,14.20
2019-05-11T09:57:39.691Z,12.97
2019-05-11T10:00:08.763Z,12.53
2019-05-11T10:02:38.327Z,12.00
2019-05-11T10:05:05.375Z,10.90
2019-05-11T10:07:32.664Z,12.23
2019-05-11T10:09:59.682Z,10.63
2019-05-11T10:12:28.602Z,11.77
2019-05-11T10:14:55.718Z,11.10
2019-05-11T10:17:22.721Z,11.40
2019-05-11T10:19:49.856Z,12.67
2019-05-11T10:22:18.924Z,14.67
2019-05-11T10:24:47.688Z,13.70
2019-05-11T10:27:15.281Z,14.63
2019-05-11T10:29:42.246Z,11.77
2019-05-11T10:32:09.213Z,14.00
2019-05-11T10:34:38.515Z,10.70
2019-05-11T10:37:05.141Z,10.63
2019-05-11T10:39:32.562Z,10.00
2019-05-11T10:41:59.769Z,7.57
2019-05-11T10:44:28.131Z,7.23
2019-05-11T10:46:55.178Z,8.30
2019-05-11T10:49:22.664Z,5.80
2019-05-11T10:51:49.905Z,5.20
2019-05-11T10:54:18.717Z,6.20
2019-05-11T10:56:48.022Z,5.10
2019-05-11T10:59:15.681Z,5.37
2019-05-11T11:01:42.744Z,6.00
2019-05-11T11:04:10.009Z,5.50
2019-05-11T11:06:38.652Z,5.90
2019-05-11T11:09:08.284Z,6.30
2019-05-11T11:11:35.511Z,5.60
2019-05-11T11:14:02.719Z,4.63
2019-05-11T11:16:37.005Z,6.10
2019-05-11T11:18:58.961Z,6.43
2019-05-11T11:21:27.910Z,5.73
2019-05-11T11:23:54.947Z,5.57
2019-05-11T11:26:21.945Z,5.70
2019-05-11T11:28:48.888Z,5.90
2019-05-11T11:31:18.385Z,6.33
2019-05-11T11:33:44.759Z,7.43
2019-05-11T11:36:11.903Z,7.00
2019-05-11T11:38:38.873Z,5.70
2019-05-11T11:41:07.667Z,5.40
2019-05-11T11:43:34.812Z,5.70
2019-05-11T11:46:01.794Z,5.93
2019-05-11T11:48:28.747Z,5.70
2019-05-11T11:50:55.722Z,5.87
2019-05-11T11:53:22.676Z,5.70
2019-05-11T11:55:50.157Z,6.10
2019-05-11T11:58:23.075Z,5.73
2019-05-11T12:00:48.178Z,5.90
2019-05-11T12:03:14.924Z,5.63
2019-05-11T12:05:41.883Z,5.20
2019-05-11T12:08:08.835Z,6.30
2019-05-11T12:10:37.810Z,5.40
2019-05-11T12:13:04.624Z,5.90
2019-05-11T12:15:31.600Z,4.97
2019-05-11T12:17:58.872Z,6.17
2019-05-11T12:20:28.478Z,5.07
2019-05-11T12:22:57.974Z,5.80
2019-05-11T12:25:24.847Z,4.90
2019-05-11T12:27:51.780Z,5.90
2019-05-11T12:30:18.920Z,6.83
2019-05-11T12:32:48.894Z,5.33
2019-05-11T12:35:20.280Z,6.63
2019-05-11T12:37:48.542Z,6.47
2019-05-11T12:40:18.031Z,5.77
2019-05-11T12:42:45.293Z,5.60
2019-05-11T12:45:12.920Z,5.53
2019-05-11T12:47:39.890Z,4.93
2019-05-11T12:50:08.021Z,5.70
2019-05-11T12:52:35.458Z,5.07
2019-05-11T12:55:02.749Z,6.00
2019-05-11T12:57:29.779Z,5.40
2019-05-11T12:59:58.250Z,4.90
2019-05-11T13:02:27.462Z,5.23
2019-05-11T13:04:54.308Z,4.77
2019-05-11T13:07:21.278Z,4.37
2019-05-11T13:09:48.634Z,5.50
2019-05-11T13:12:15.796Z,4.97
2019-05-11T13:14:42.724Z,5.10
2019-05-11T13:17:09.704Z,5.80
2019-05-11T13:19:38.465Z,5.30
2019-05-11T13:22:07.758Z,4.97
2019-05-11T13:24:34.346Z,4.90
2019-05-11T13:27:01.322Z,5.10
2019-05-11T13:29:28.817Z,5.60
2019-05-11T13:31:56.007Z,5.80
2019-05-11T13:34:22.949Z,6.30
2019-05-11T13:36:49.947Z,6.27
2019-05-11T13:39:18.131Z,5.23
2019-05-11T13:41:47.456Z,6.60
2019-05-11T13:44:14.112Z,5.50
2019-05-11T13:46:41.141Z,6.07
2019-05-11T13:49:08.535Z,6.10
2019-05-11T13:51:35.712Z,6.37
2019-05-11T13:54:02.666Z,9.27
2019-05-11T13:56:32.241Z,6.57
2019-05-11T13:59:06.865Z,6.97
2019-05-11T14:01:33.837Z,6.60
2019-05-11T14:04:00.788Z,6.20
2019-05-11T14:06:28.899Z,6.97
2019-05-11T14:08:58.207Z,6.90
2019-05-11T14:11:24.794Z,6.03
2019-05-11T14:13:51.745Z,6.80
2019-05-11T14:16:18.820Z,5.77
2019-05-11T14:18:45.863Z,5.90
2019-05-11T14:21:12.787Z,6.10
2019-05-11T14:23:39.743Z,7.50
2019-05-11T14:26:08.330Z,7.23
2019-05-11T14:28:37.196Z,6.00
2019-05-11T14:31:04.404Z,6.23
2019-05-11T14:33:31.352Z,6.90
2019-05-11T14:35:58.316Z,5.70
2019-05-11T14:38:25.279Z,8.10
2019-05-11T14:40:52.247Z,6.70
2019-05-11T14:43:23.418Z,5.90
2019-05-11T14:45:50.394Z,6.80
2019-05-11T14:48:25.914Z,6.00
2019-05-11T14:50:48.737Z,6.13
2019-05-11T14:53:15.217Z,5.47
2019-05-11T14:55:42.143Z,6.30
2019-05-11T14:58:09.107Z,6.00
2019-05-11T15:00:36.963Z,5.60
2019-05-11T15:03:04.899Z,6.70
2019-05-11T15:05:31.856Z,8.37
2019-05-11T15:07:58.915Z,6.37
2019-05-11T15:10:27.768Z,8.80
2019-05-11T15:12:54.810Z,5.97
2019-05-11T15:15:21.746Z,5.53
2019-05-11T15:17:49.472Z,4.90
2019-05-11T15:20:17.693Z,4.70
2019-05-11T15:22:45.056Z,5.30
2019-05-11T15:25:13.625Z,6.40
2019-05-11T15:27:40.582Z,6.10
2019-05-11T15:30:08.060Z,6.30
2019-05-11T15:32:35.091Z,4.57
2019-05-11T15:35:02.089Z,3.57
2019-05-11T15:37:29.025Z,4.40
2019-05-11T15:40:11.613Z,3.73
2019-05-11T15:42:38.575Z,3.70
2019-05-11T15:45:07.926Z,3.10
2019-05-11T15:47:34.508Z,3.20
2019-05-11T15:50:01.485Z,3.10
2019-05-11T15:52:28.403Z,3.53
2019-05-11T15:54:55.367Z,2.97
2019-05-11T15:57:22.279Z,2.37
2019-05-11T15:59:49.266Z,3.03
2019-05-11T16:02:17.990Z,3.20
2019-05-11T16:04:45.056Z,3.03
2019-05-11T16:07:11.992Z,3.17
2019-05-11T16:09:38.940Z,3.03
2019-05-11T16:12:05.859Z,2.90
2019-05-11T16:14:32.955Z,3.20
2019-05-11T16:16:59.907Z,3.33
2019-05-11T16:19:28.109Z,3.10
2019-05-11T16:21:55.249Z,2.70
2019-05-11T16:24:22.205Z,2.30
2019-05-11T16:26:49.655Z,2.93
2019-05-11T16:29:18.978Z,3.20
2019-05-11T16:31:45.697Z,3.20
2019-05-11T16:34:12.678Z,3.30
2019-05-11T16:36:39.605Z,2.60
2019-05-11T16:39:10.331Z,2.33
2019-05-11T16:41:38.240Z,2.93
2019-05-11T16:44:07.693Z,2.63
2019-05-11T16:46:34.736Z,2.30
2019-05-11T16:49:01.707Z,2.00
2019-05-11T16:51:28.782Z,2.10
2019-05-11T16:53:55.735Z,2.03
2019-05-11T16:56:22.668Z,2.50
2019-05-11T16:58:50.424Z,1.70
2019-05-11T17:01:18.860Z,1.70
2019-05-11T17:03:48.090Z,1.97
2019-05-11T17:06:14.890Z,1.80
2019-05-11T17:08:41.831Z,1.57
2019-05-11T17:11:08.804Z,1.90
2019-05-11T17:13:37.772Z,2.63
2019-05-11T17:16:04.587Z,1.90
2019-05-11T17:18:31.538Z,2.37
2019-05-11T17:20:58.713Z,1.83
2019-05-11T17:23:25.973Z,1.50
2019-05-11T17:25:53.030Z,1.77
2019-05-11T17:28:19.941Z,2.13
2019-05-11T17:30:48.108Z,1.73
2019-05-11T17:33:17.435Z,2.10
2019-05-11T17:35:44.110Z,1.57
2019-05-11T17:38:11.120Z,2.07
2019-05-11T17:40:38.129Z,1.80
2019-05-11T17:43:05.085Z,2.03
2019-05-11T17:45:32.068Z,1.80
2019-05-11T17:47:59.013Z,1.60
2019-05-11T17:50:28.045Z,1.27
2019-05-11T17:52:54.862Z,2.27
2019-05-11T17:55:21.862Z,2.10
2019-05-11T17:57:50.460Z,2.27
2019-05-11T18:00:20.093Z,1.63
2019-05-11T18:02:49.081Z,3.47
2019-05-11T18:05:17.868Z,1.67
2019-05-11T18:07:45.650Z,2.17
2019-05-11T18:10:12.703Z,1.53
2019-05-11T18:12:40.045Z,2.73
2019-05-11T18:15:08.231Z,1.80
2019-05-11T18:17:35.485Z,2.50
2019-05-11T18:20:14.744Z,2.23
2019-05-11T18:22:31.840Z,1.90
2019-05-11T18:24:58.800Z,2.00
2019-05-11T18:27:27.714Z,1.60
2019-05-11T18:29:54.597Z,2.33
2019-05-11T18:32:21.536Z,2.50
2019-05-11T18:34:48.592Z,1.80
2019-05-11T18:37:15.565Z,1.63
2019-05-11T18:39:42.492Z,1.47
2019-05-11T18:42:09.474Z,1.00
2019-05-11T18:44:37.958Z,1.63
2019-05-11T18:47:05.431Z,1.13
2019-05-11T18:49:32.363Z,1.50
2019-05-11T18:51:59.340Z,1.10
2019-05-11T18:54:27.712Z,0.90
2019-05-11T18:56:54.848Z,1.63
2019-05-11T18:59:21.794Z,1.30
2019-05-11T19:01:48.800Z,1.20
2019-05-11T19:04:18.202Z,1.50
2019-05-11T19:06:44.581Z,1.57
2019-05-11T19:09:11.519Z,1.33
2019-05-11T19:11:38.626Z,1.03
2019-05-11T19:14:08.534Z,1.50
2019-05-11T19:16:35.885Z,1.47
2019-05-11T19:19:02.815Z,1.30
2019-05-11T19:21:29.866Z,1.50
2019-05-11T19:23:58.119Z,1.40
2019-05-11T19:26:25.162Z,1.47
2019-05-11T19:28:52.077Z,1.70
2019-05-11T19:31:19.232Z,1.37
2019-05-11T19:33:48.733Z,1.60
2019-05-11T19:36:15.037Z,1.30
2019-05-11T19:38:42.020Z,1.77
2019-05-11T19:41:09.845Z,1.20
2019-05-11T19:43:38.133Z,1.33
2019-05-11T19:46:05.248Z,1.47
2019-05-11T19:48:32.192Z,1.90
2019-05-11T19:51:07.478Z,1.60
2019-05-11T19:53:28.227Z,1.20
2019-05-11T19:55:55.306Z,1.60
2019-05-11T19:58:22.227Z,1.50
2019-05-11T20:00:49.155Z,1.67
2019-05-11T20:03:18.295Z,1.70
2019-05-11T20:05:44.958Z,1.33
2019-05-11T20:08:11.958Z,1.87
2019-05-11T20:10:38.897Z,1.57
2019-05-11T20:13:07.971Z,1.53
2019-05-11T20:15:35.169Z,1.50
2019-05-11T20:18:02.257Z,1.70
2019-05-11T20:20:29.192Z,2.10
2019-05-11T20:22:58.276Z,1.90
2019-05-11T20:25:24.984Z,1.87
2019-05-11T20:27:51.942Z,1.70
2019-05-11T20:30:19.352Z,1.60
2019-05-11T20:32:48.352Z,1.47
2019-05-11T20:35:15.475Z,1.40
2019-05-11T20:37:42.440Z,1.90
2019-05-11T20:40:10.089Z,1.73
2019-05-11T20:42:38.085Z,2.10
2019-05-11T20:45:07.591Z,1.60
2019-05-11T20:47:33.953Z,1.77
2019-05-11T20:50:00.889Z,1.77
2019-05-11T20:52:28.425Z,1.73
2019-05-11T20:54:58.205Z,1.80
2019-05-11T20:57:24.446Z,2.10
2019-05-11T20:59:51.376Z,1.87
2019-05-11T21:02:18.439Z,1.97
2019-05-11T21:04:45.410Z,1.30
2019-05-11T21:07:12.438Z,1.90
2019-05-11T21:09:39.398Z,1.40
2019-05-11T21:12:08.135Z,1.53
2019-05-11T21:14:35.199Z,1.60
2019-05-11T21:17:02.116Z,1.83
2019-05-11T21:19:29.126Z,1.77
2019-05-11T21:21:58.768Z,1.70
2019-05-11T21:24:28.102Z,1.60
2019-05-11T21:26:55.152Z,2.00
2019-05-11T21:29:22.169Z,1.80
2019-05-11T21:31:49.107Z,1.50
2019-05-11T21:34:18.159Z,3.33
2019-05-11T21:36:44.978Z,1.60
2019-05-11T21:39:11.949Z,2.03
2019-05-11T21:41:38.912Z,2.43
2019-05-11T21:44:07.789Z,2.23
2019-05-11T21:46:34.839Z,1.70
2019-05-11T21:49:01.831Z,2.20
2019-05-11T21:51:28.848Z,2.17
2019-05-11T21:53:57.854Z,1.67
2019-05-11T21:56:24.993Z,1.70
2019-05-11T21:58:53.710Z,1.67
2019-05-11T22:01:20.794Z,1.83
2019-05-11T22:03:48.046Z,1.77
2019-05-11T22:06:15.123Z,1.73
2019-05-11T22:08:42.132Z,2.10
2019-05-11T22:11:09.052Z,2.10
2019-05-11T22:13:37.880Z,1.87
2019-05-11T22:16:04.872Z,2.10
2019-05-11T22:18:31.854Z,1.80
2019-05-11T22:20:58.775Z,1.70
2019-05-11T22:23:28.021Z,1.97
2019-05-11T22:25:54.608Z,1.40
2019-05-11T22:28:21.601Z,2.17
2019-05-11T22:30:48.527Z,1.40
2019-05-11T22:33:17.658Z,1.77
2019-05-11T22:35:44.313Z,1.70
2019-05-11T22:38:11.237Z,2.10
2019-05-11T22:40:38.533Z,1.70
2019-05-11T22:43:05.570Z,2.90
2019-05-11T22:45:32.572Z,1.83
2019-05-11T22:48:02.532Z,2.60
2019-05-11T22:50:29.516Z,3.43
2019-05-11T22:52:56.435Z,2.00
2019-05-11T22:55:27.713Z,2.13
2019-05-11T22:57:54.753Z,2.23
2019-05-11T23:00:39.590Z,2.40
2019-05-11T23:03:07.699Z,2.20
2019-05-11T23:05:35.373Z,2.10
2019-05-11T23:08:02.344Z,1.90
2019-05-11T23:10:29.308Z,2.80
2019-05-11T23:12:56.239Z,1.63
2019-05-11T23:15:23.218Z,1.70
2019-05-11T23:17:50.151Z,1.70
2019-05-11T23:20:17.231Z,2.00
2019-05-11T23:22:57.058Z,1.63
2019-05-11T23:25:18.485Z,2.43
2019-05-11T23:27:45.289Z,2.30
2019-05-11T23:30:12.719Z,2.20
2019-05-11T23:32:39.617Z,2.17
2019-05-11T23:35:08.384Z,1.97
2019-05-11T23:37:35.517Z,2.30
2019-05-11T23:40:02.527Z,2.03
2019-05-11T23:42:30.983Z,2.33
2019-05-11T23:44:58.661Z,2.77
2019-05-11T23:47:25.659Z,2.40
2019-05-11T23:49:52.622Z,2.40
2019-05-11T23:52:19.554Z,2.63
2019-05-11T23:54:48.474Z,2.20
2019-05-11T23:57:15.545Z,2.57
2019-05-11T23:59:42.528Z,2.10
